createdAt,value
2018-11-14T00:01:46.234Z,17.70
2018-11-14T00:04:19.677Z,18.87
2018-11-14T00:06:53.656Z,16.40
2018-11-14T00:09:28.156Z,17.83
2018-11-14T00:12:02.159Z,18.90
2018-11-14T00:14:36.449Z,24.83
2018-11-14T00:17:10.455Z,22.17
2018-11-14T00:19:44.823Z,26.77
2018-11-14T00:22:18.251Z,27.42
2018-11-14T00:24:53.198Z,23.07
2018-11-14T00:27:26.844Z,24.98
2018-11-14T00:30:00.960Z,19.73
2018-11-14T00:32:34.843Z,21.43
2018-11-14T00:35:09.235Z,18.77
2018-11-14T00:37:46.578Z,19.97
2018-11-14T00:40:20.956Z,22.47
2018-11-14T00:42:55.818Z,20.63
2018-11-14T00:45:29.527Z,20.63
2018-11-14T00:48:03.469Z,20.70
2018-11-14T00:50:37.561Z,19.53
2018-11-14T00:53:12.137Z,21.87
2018-11-14T00:55:46.744Z,21.43
2018-11-14T00:58:20.876Z,21.23
2018-11-14T01:00:54.928Z,21.60
2018-11-14T01:10:31.580Z,21.93
2018-11-14T01:13:05.331Z,20.50
2018-11-14T01:15:39.156Z,25.30
2018-11-14T01:18:12.624Z,22.97
2018-11-14T01:20:46.572Z,22.13
2018-11-14T01:23:20.282Z,17.00
2018-11-14T01:25:53.982Z,13.10
2018-11-14T01:28:27.465Z,13.97
2018-11-14T01:31:01.624Z,13.03
2018-11-14T01:33:37.297Z,14.97
2018-11-14T01:36:13.097Z,15.50
2018-11-14T01:38:48.612Z,12.43
2018-11-14T01:41:22.538Z,15.07
2018-11-14T01:43:56.913Z,14.83
2018-11-14T01:46:30.401Z,14.70
2018-11-14T01:49:05.647Z,16.47
2018-11-14T01:51:39.289Z,15.10
2018-11-14T01:54:13.398Z,16.43
2018-11-14T01:56:47.070Z,14.77
2018-11-14T01:59:21.583Z,16.77
2018-11-14T02:01:55.554Z,15.47
2018-11-14T02:04:31.525Z,31.70
2018-11-14T02:07:05.333Z,15.33
2018-11-14T02:09:39.370Z,14.27
2018-11-14T02:12:13.050Z,16.17
2018-11-14T02:14:46.701Z,15.20
2018-11-14T02:17:20.961Z,16.33
2018-11-14T02:19:54.804Z,16.87
2018-11-14T02:22:28.814Z,15.33
2018-11-14T02:25:02.528Z,13.33
2018-11-14T02:27:37.487Z,13.88
2018-11-14T02:30:13.708Z,13.80
2018-11-14T02:32:47.531Z,17.17
2018-11-14T02:35:21.175Z,18.93
2018-11-14T02:37:55.330Z,13.48
2018-11-14T02:40:29.841Z,18.30
2018-11-14T02:43:03.877Z,15.93
2018-11-14T02:45:37.281Z,16.00
2018-11-14T02:51:11.252Z,14.23
2018-11-14T02:53:44.827Z,14.90
2018-11-14T02:56:19.622Z,15.37
2018-11-14T02:58:53.548Z,17.80
2018-11-14T03:01:27.739Z,15.90
2018-11-14T03:04:01.506Z,18.60
2018-11-14T03:06:35.150Z,11.67
2018-11-14T03:09:10.123Z,11.90
2018-11-14T03:11:43.667Z,13.50
2018-11-14T03:14:17.405Z,12.40
2018-11-14T03:16:51.577Z,12.47
2018-11-14T03:19:25.973Z,17.23
2018-11-14T03:21:59.922Z,15.37
2018-11-14T03:24:34.196Z,14.53
2018-11-14T03:27:08.333Z,13.93
2018-11-14T03:29:42.318Z,14.60
2018-11-14T03:32:16.305Z,18.25
2018-11-14T03:34:50.145Z,15.23
2018-11-14T03:37:23.949Z,14.05
2018-11-14T03:39:58.079Z,14.80
2018-11-14T03:42:33.559Z,17.73
2018-11-14T03:45:07.317Z,20.48
2018-11-14T03:47:41.167Z,17.23
2018-11-14T03:50:15.342Z,25.45
2018-11-14T03:52:49.185Z,16.75
2018-11-14T03:55:23.250Z,18.77
2018-11-14T03:57:57.066Z,23.37
2018-11-14T04:00:40.936Z,20.43
2018-11-14T04:03:22.089Z,20.57
2018-11-14T04:06:03.938Z,26.27
2018-11-14T04:08:47.731Z,17.43
2018-11-14T04:11:36.679Z,20.25
2018-11-14T04:14:24.075Z,19.83
2018-11-14T04:17:18.238Z,19.53
2018-11-14T04:19:59.564Z,18.00
2018-11-14T04:23:01.775Z,17.90
2018-11-14T04:25:44.016Z,20.97
2018-11-14T04:28:29.215Z,21.90
2018-11-14T04:31:13.737Z,24.63
2018-11-14T04:34:03.760Z,18.25
2018-11-14T04:36:48.157Z,15.18
2018-11-14T04:39:28.559Z,23.18
2018-11-14T04:42:07.050Z,18.37
2018-11-14T04:44:56.309Z,16.97
2018-11-14T04:47:42.609Z,15.90
2018-11-14T04:50:27.469Z,15.70
2018-11-14T04:53:09.023Z,17.95
2018-11-14T04:55:56.505Z,14.40
2018-11-14T04:58:41.650Z,15.63
2018-11-14T05:01:17.687Z,18.32
2018-11-14T05:03:51.296Z,17.90
2018-11-14T05:06:24.937Z,16.82
2018-11-14T05:08:59.482Z,15.45
2018-11-14T05:11:33.372Z,15.90
2018-11-14T05:14:15.495Z,16.10
2018-11-14T05:16:53.753Z,15.15
2018-11-14T05:19:28.836Z,14.73
2018-11-14T05:22:02.654Z,15.20
2018-11-14T05:24:37.518Z,14.10
2018-11-14T05:27:11.783Z,13.70
2018-11-14T05:29:45.266Z,15.17
2018-11-14T05:32:19.080Z,19.37
2018-11-14T05:34:52.975Z,17.63
2018-11-14T05:37:26.734Z,17.27
2018-11-14T05:40:01.248Z,17.75
2018-11-14T05:42:35.216Z,17.87
2018-11-14T05:45:12.447Z,17.10
2018-11-14T05:47:47.358Z,18.13
2018-11-14T05:50:24.182Z,18.48
2018-11-14T05:52:57.914Z,18.60
2018-11-14T05:55:31.850Z,17.70
2018-11-14T05:58:05.738Z,18.33
2018-11-14T06:00:39.279Z,19.80
2018-11-14T06:08:17.438Z,15.37
2018-11-14T06:10:51.251Z,16.80
2018-11-14T06:13:25.236Z,17.00
2018-11-14T06:15:59.258Z,15.03
2018-11-14T06:18:33.357Z,14.33
2018-11-14T06:21:08.080Z,12.73
2018-11-14T06:23:42.083Z,11.50
2018-11-14T06:26:17.309Z,12.33
2018-11-14T06:28:50.585Z,11.57
2018-11-14T06:31:24.367Z,12.53
2018-11-14T06:33:58.456Z,14.85
2018-11-14T06:36:33.523Z,15.93
2018-11-14T06:39:09.108Z,15.93
2018-11-14T06:41:43.179Z,18.87
2018-11-14T06:44:17.604Z,18.87
2018-11-14T06:46:53.193Z,22.60
2018-11-14T06:49:26.595Z,20.70
2018-11-14T06:52:00.429Z,17.63
2018-11-14T06:54:34.328Z,20.00
2018-11-14T06:57:08.066Z,21.37
2018-11-14T06:59:41.642Z,28.43
2018-11-14T07:02:16.605Z,29.77
2018-11-14T07:04:51.390Z,24.12
2018-11-14T07:07:25.246Z,24.65
2018-11-14T07:10:01.246Z,22.97
2018-11-14T07:12:37.685Z,24.43
2018-11-14T07:15:19.166Z,24.97
2018-11-14T07:17:53.785Z,23.10
2018-11-14T07:20:33.450Z,21.27
2018-11-14T07:23:07.516Z,21.63
2018-11-14T07:25:41.379Z,24.13
2018-11-14T07:28:16.474Z,24.37
2018-11-14T07:30:53.936Z,21.77
2018-11-14T07:33:28.653Z,19.17
2018-11-14T07:36:03.579Z,20.63
2018-11-14T07:38:41.833Z,18.10
2018-11-14T07:41:19.594Z,16.43
2018-11-14T07:43:53.447Z,16.63
2018-11-14T07:46:28.453Z,16.43
2018-11-14T07:49:03.395Z,17.20
2018-11-14T07:51:39.443Z,16.17
2018-11-14T07:54:13.178Z,15.88
2018-11-14T07:56:47.087Z,15.93
2018-11-14T07:59:20.663Z,22.03
2018-11-14T08:01:55.023Z,17.07
2018-11-14T08:04:28.489Z,17.67
2018-11-14T08:07:02.382Z,17.47
2018-11-14T08:09:36.691Z,16.62
2018-11-14T08:12:10.618Z,18.13
2018-11-14T08:14:45.273Z,16.50
2018-11-14T08:17:19.221Z,16.83
2018-11-14T08:19:53.934Z,15.70
2018-11-14T08:22:27.790Z,16.10
2018-11-14T08:25:01.702Z,14.47
2018-11-14T08:27:35.386Z,14.63
2018-11-14T08:30:10.479Z,15.17
2018-11-14T08:32:45.248Z,15.17
2018-11-14T08:35:19.049Z,15.67
2018-11-14T08:37:53.443Z,14.18
2018-11-14T08:40:27.498Z,15.43
2018-11-14T08:43:01.385Z,13.57
2018-11-14T08:45:36.841Z,14.68
2018-11-14T08:48:11.388Z,13.93
2018-11-14T08:50:46.562Z,15.47
2018-11-14T08:53:20.172Z,14.80
2018-11-14T08:55:58.310Z,14.57
2018-11-14T08:58:33.571Z,16.87
2018-11-14T09:01:07.550Z,16.20
2018-11-14T09:03:41.749Z,14.83
2018-11-14T09:06:15.891Z,14.97
2018-11-14T09:08:50.595Z,15.40
2018-11-14T09:11:24.870Z,17.40
2018-11-14T09:13:59.001Z,15.43
2018-11-14T09:16:33.609Z,16.07
2018-11-14T09:19:07.493Z,16.62
2018-11-14T09:21:42.058Z,16.67
2018-11-14T09:24:16.551Z,16.20
2018-11-14T09:26:50.522Z,16.00
2018-11-14T09:29:24.151Z,15.00
2018-11-14T09:31:58.299Z,15.40
2018-11-14T09:34:33.547Z,15.20
2018-11-14T09:37:07.786Z,15.08
2018-11-14T09:39:43.140Z,15.57
2018-11-14T09:42:16.985Z,15.57
2018-11-14T09:44:51.488Z,15.47
2018-11-14T09:47:26.366Z,14.30
2018-11-14T09:49:59.979Z,14.37
2018-11-14T09:52:34.414Z,15.20
2018-11-14T09:55:08.509Z,14.20
2018-11-14T09:57:42.734Z,13.80
2018-11-14T10:00:19.460Z,14.25
2018-11-14T10:02:54.194Z,14.60
2018-11-14T10:05:29.657Z,13.70
2018-11-14T10:08:04.000Z,14.47
2018-11-14T10:10:37.684Z,13.47
2018-11-14T10:13:11.937Z,15.10
2018-11-14T10:15:46.586Z,13.87
2018-11-14T10:18:20.054Z,13.97
2018-11-14T10:20:54.045Z,14.93
2018-11-14T10:23:27.686Z,14.37
2018-11-14T10:26:01.837Z,14.67
2018-11-14T10:28:35.968Z,14.33
2018-11-14T10:31:09.281Z,14.50
2018-11-14T10:33:45.636Z,14.83
2018-11-14T10:36:19.324Z,14.30
2018-11-14T10:38:53.464Z,14.20
2018-11-14T10:41:27.214Z,16.10
2018-11-14T10:44:01.556Z,16.37
2018-11-14T10:46:36.052Z,17.03
2018-11-14T10:49:10.106Z,16.67
2018-11-14T10:51:44.225Z,15.93
2018-11-14T10:54:18.662Z,16.70
2018-11-14T10:56:52.739Z,16.23
2018-11-14T10:59:27.866Z,16.70
2018-11-14T11:02:06.608Z,16.27
2018-11-14T11:04:44.333Z,16.13
2018-11-14T11:07:22.368Z,16.63
2018-11-14T11:10:00.379Z,15.90
2018-11-14T11:12:39.477Z,17.43
2018-11-14T11:15:28.771Z,17.17
2018-11-14T11:18:08.479Z,16.00
2018-11-14T11:20:42.682Z,16.93
2018-11-14T11:23:16.436Z,19.23
2018-11-14T11:25:50.813Z,18.00
2018-11-14T11:28:24.584Z,18.70
2018-11-14T11:30:58.702Z,17.10
2018-11-14T11:33:32.474Z,15.75
2018-11-14T11:36:06.006Z,15.73
2018-11-14T11:38:40.873Z,18.47
2018-11-14T11:41:16.396Z,20.07
2018-11-14T11:43:51.109Z,19.63
2018-11-14T11:46:25.133Z,22.13
2018-11-14T11:48:59.070Z,23.30
2018-11-14T11:51:33.116Z,21.67
2018-11-14T11:54:07.157Z,23.52
2018-11-14T11:56:43.376Z,25.67
2018-11-14T11:59:17.212Z,22.82
2018-11-14T12:01:51.928Z,21.83
2018-11-14T12:04:25.800Z,19.97
2018-11-14T12:06:59.419Z,21.23
2018-11-14T12:09:33.135Z,21.93
2018-11-14T12:12:06.990Z,21.68
2018-11-14T12:14:40.861Z,22.05
2018-11-14T12:17:15.675Z,21.93
2018-11-14T12:19:49.903Z,21.43
2018-11-14T12:22:24.852Z,22.20
2018-11-14T12:24:58.604Z,22.67
2018-11-14T12:27:32.683Z,20.77
2018-11-14T12:30:06.529Z,22.50
2018-11-14T12:32:43.182Z,22.73
2018-11-14T12:35:18.653Z,21.00
2018-11-14T12:37:52.553Z,22.40
2018-11-14T12:40:26.879Z,22.50
2018-11-14T12:43:03.029Z,19.60
2018-11-14T12:45:37.590Z,21.10
2018-11-14T12:48:12.282Z,21.68
2018-11-14T12:50:47.488Z,19.10
2018-11-14T12:53:20.933Z,21.13
2018-11-14T12:55:55.075Z,33.03
2018-11-14T12:58:31.313Z,31.90
2018-11-14T13:01:05.320Z,33.87
2018-11-14T13:03:41.989Z,29.43
2018-11-14T13:06:16.606Z,27.03
2018-11-14T13:08:50.353Z,28.83
2018-11-14T13:11:24.422Z,29.70
2018-11-14T13:13:58.858Z,29.97
2018-11-14T13:16:32.750Z,27.60
2018-11-14T13:19:06.664Z,26.07
2018-11-14T13:21:40.341Z,29.13
2018-11-14T13:24:14.342Z,27.83
2018-11-14T13:26:48.567Z,28.93
2018-11-14T13:29:23.352Z,30.23
2018-11-14T13:31:57.503Z,31.97
2018-11-14T13:34:33.365Z,30.90
2018-11-14T13:37:07.014Z,31.48
2018-11-14T13:39:41.079Z,30.17
2018-11-14T13:42:15.454Z,29.30
2018-11-14T13:44:50.358Z,30.10
2018-11-14T13:47:23.978Z,31.47
2018-11-14T13:49:59.226Z,31.60
2018-11-14T13:52:34.256Z,33.10
2018-11-14T13:55:09.067Z,31.97
2018-11-14T13:57:43.836Z,34.27
2018-11-14T14:00:20.694Z,32.70
2018-11-14T14:02:55.431Z,29.82
2018-11-14T14:05:29.385Z,31.87
2018-11-14T14:08:07.213Z,31.87
2018-11-14T14:10:41.235Z,31.70
2018-11-14T14:13:15.102Z,30.37
2018-11-14T14:15:49.387Z,31.67
2018-11-14T14:18:23.049Z,32.30
2018-11-14T14:20:57.160Z,36.97
2018-11-14T14:23:31.010Z,36.00
2018-11-14T14:26:05.238Z,34.37
2018-11-14T14:28:39.343Z,33.48
2018-11-14T14:31:13.830Z,33.13
2018-11-14T14:33:48.322Z,32.53
2018-11-14T14:36:22.685Z,31.93
2018-11-14T14:38:58.452Z,32.97
2018-11-14T14:41:32.259Z,32.65
2018-11-14T14:44:07.009Z,33.23
2018-11-14T14:46:41.051Z,34.00
2018-11-14T14:49:14.787Z,31.53
2018-11-14T14:51:48.754Z,34.77
2018-11-14T14:54:22.659Z,33.53
2018-11-14T14:56:56.331Z,36.93
2018-11-14T14:59:30.524Z,33.30
2018-11-14T15:02:05.617Z,33.83
2018-11-14T15:04:39.513Z,34.50
2018-11-14T15:07:13.435Z,34.13
2018-11-14T15:09:47.352Z,39.10
2018-11-14T15:12:22.744Z,37.13
2018-11-14T15:14:57.697Z,34.13
2018-11-14T15:17:32.686Z,38.70
2018-11-14T15:20:09.286Z,32.63
2018-11-14T15:22:44.443Z,32.43
2018-11-14T15:25:19.875Z,32.40
2018-11-14T15:27:54.212Z,33.33
2018-11-14T15:30:29.445Z,32.98
2018-11-14T15:33:03.811Z,32.27
2018-11-14T15:35:36.928Z,34.47
2018-11-14T15:38:11.494Z,33.67
2018-11-14T15:40:44.864Z,33.73
2018-11-14T15:43:19.225Z,33.83
2018-11-14T15:45:52.800Z,32.37
2018-11-14T15:48:26.487Z,33.93
2018-11-14T15:51:00.577Z,39.10
2018-11-14T15:53:34.245Z,38.40
2018-11-14T15:56:08.289Z,38.85
2018-11-14T15:58:43.241Z,40.77
2018-11-14T16:01:17.481Z,44.27
2018-11-14T16:03:53.304Z,40.80
2018-11-14T16:06:27.189Z,37.07
2018-11-14T16:09:01.082Z,36.70
2018-11-14T16:11:36.450Z,35.50
2018-11-14T16:14:10.534Z,36.73
2018-11-14T16:16:44.990Z,37.30
2018-11-14T16:19:20.043Z,39.70
2018-11-14T16:21:54.203Z,39.10
2018-11-14T16:24:28.182Z,38.73
2018-11-14T16:27:03.877Z,40.40
2018-11-14T16:29:38.099Z,51.07
2018-11-14T16:32:12.759Z,49.73
2018-11-14T16:34:46.802Z,54.93
2018-11-14T16:37:20.369Z,54.40
2018-11-14T16:39:55.780Z,63.58
2018-11-14T16:42:29.796Z,61.13
2018-11-14T16:45:03.880Z,52.83
2018-11-14T16:47:37.838Z,47.10
2018-11-14T16:50:13.113Z,58.50
2018-11-14T16:52:46.297Z,58.73
2018-11-14T16:55:22.843Z,55.70
2018-11-14T16:57:59.238Z,50.17
2018-11-14T17:00:33.667Z,44.27
2018-11-14T17:03:07.752Z,43.60
2018-11-14T17:05:42.308Z,47.17
2018-11-14T17:08:16.075Z,49.20
2018-11-14T17:10:50.904Z,44.13
2018-11-14T17:13:24.949Z,40.57
2018-11-14T17:15:59.705Z,36.23
2018-11-14T17:18:34.256Z,38.53
2018-11-14T17:21:07.949Z,46.13
2018-11-14T17:23:43.235Z,47.00
2018-11-14T17:26:17.288Z,43.90
2018-11-14T17:28:55.385Z,46.47
2018-11-14T17:31:30.168Z,43.60
2018-11-14T17:34:03.753Z,40.60
2018-11-14T17:36:39.133Z,35.40
2018-11-14T17:39:15.015Z,37.37
2018-11-14T17:41:49.493Z,39.90
2018-11-14T17:44:23.794Z,39.50
2018-11-14T17:46:57.440Z,38.13
2018-11-14T17:49:31.293Z,41.37
2018-11-14T17:52:08.519Z,43.07
2018-11-14T17:54:45.764Z,40.00
2018-11-14T17:57:21.100Z,47.33
2018-11-14T17:59:56.138Z,41.83
2018-11-14T18:02:31.759Z,41.83
2018-11-14T18:05:06.308Z,39.87
2018-11-14T18:07:41.038Z,40.73
2018-11-14T18:10:17.176Z,40.17
2018-11-14T18:12:51.995Z,39.53
2018-11-14T18:15:26.486Z,40.30
2018-11-14T18:18:00.578Z,41.03
2018-11-14T18:23:07.851Z,45.47
2018-11-14T18:25:41.751Z,40.70
2018-11-14T18:28:16.145Z,39.70
2018-11-14T18:30:50.356Z,38.83
2018-11-14T18:33:24.444Z,38.87
2018-11-14T18:35:58.498Z,39.03
2018-11-14T18:38:33.891Z,38.90
2018-11-14T18:41:07.737Z,36.90
2018-11-14T18:43:41.371Z,45.57
2018-11-14T18:46:17.010Z,43.13
2018-11-14T18:48:51.627Z,37.67
2018-11-14T18:51:26.693Z,35.10
2018-11-14T18:54:02.194Z,38.93
2018-11-14T18:56:35.980Z,37.83
2018-11-14T18:59:11.245Z,40.43
2018-11-14T19:01:45.266Z,40.40
2018-11-14T19:04:19.495Z,42.47
2018-11-14T19:06:53.444Z,41.20
2018-11-14T19:09:29.257Z,38.07
2018-11-14T19:12:03.113Z,35.67
2018-11-14T19:14:36.926Z,35.77
2018-11-14T19:17:09.957Z,39.03
2018-11-14T19:19:43.882Z,37.87
2018-11-14T19:22:17.526Z,36.70
2018-11-14T19:24:51.917Z,37.83
2018-11-14T19:27:25.523Z,38.60
2018-11-14T19:29:59.920Z,37.77
2018-11-14T19:32:33.811Z,35.40
2018-11-14T19:35:08.290Z,37.10
2018-11-14T19:37:42.896Z,38.27
2018-11-14T19:40:20.131Z,37.20
2018-11-14T19:42:56.676Z,40.03
2018-11-14T19:45:32.607Z,36.57
2018-11-14T19:48:06.109Z,40.23
2018-11-14T19:50:40.864Z,38.13
2018-11-14T19:53:15.026Z,36.43
2018-11-14T19:55:48.775Z,35.53
2018-11-14T19:58:22.821Z,37.77
2018-11-14T20:00:56.765Z,39.17
2018-11-14T20:03:31.169Z,37.03
2018-11-14T20:06:06.490Z,37.47
2018-11-14T20:08:40.503Z,35.70
2018-11-14T20:11:15.588Z,35.07
2018-11-14T20:13:49.986Z,35.23
2018-11-14T20:16:23.912Z,35.17
2018-11-14T20:18:58.437Z,36.23
2018-11-14T20:21:33.152Z,33.90
2018-11-14T20:24:07.028Z,34.87
2018-11-14T20:26:42.224Z,35.20
2018-11-14T20:29:15.891Z,35.53
2018-11-14T20:31:50.507Z,34.30
2018-11-14T20:34:24.056Z,33.97
2018-11-14T20:36:58.226Z,34.37
2018-11-14T20:39:32.768Z,33.50
2018-11-14T20:42:07.547Z,34.80
2018-11-14T20:44:41.694Z,33.60
2018-11-14T20:47:15.338Z,36.20
2018-11-14T20:49:49.463Z,35.53
2018-11-14T20:52:23.520Z,34.60
2018-11-14T20:54:57.259Z,34.67
2018-11-14T20:57:31.064Z,36.13
2018-11-14T21:00:04.840Z,36.00
2018-11-14T21:02:39.802Z,34.90
2018-11-14T21:05:14.532Z,34.87
2018-11-14T21:07:48.334Z,34.90
2018-11-14T21:10:23.587Z,34.63
2018-11-14T21:12:58.458Z,32.17
2018-11-14T21:15:33.755Z,32.13
2018-11-14T21:18:08.093Z,33.63
2018-11-14T21:20:42.113Z,33.10
2018-11-14T21:23:15.857Z,33.03
2018-11-14T21:25:52.063Z,34.90
2018-11-14T21:28:27.072Z,35.33
2018-11-14T21:31:01.635Z,33.20
2018-11-14T21:33:35.406Z,34.30
2018-11-14T21:36:11.046Z,33.60
2018-11-14T21:38:45.437Z,36.77
2018-11-14T21:41:19.285Z,36.90
2018-11-14T21:43:54.115Z,36.43
2018-11-14T21:46:28.849Z,35.03
2018-11-14T21:49:05.042Z,35.30
2018-11-14T21:51:39.436Z,34.03
2018-11-14T21:54:13.331Z,35.20
2018-11-14T21:56:48.199Z,38.40
2018-11-14T21:59:22.099Z,39.25
2018-11-14T22:01:55.867Z,35.90
2018-11-14T22:04:29.608Z,32.73
2018-11-14T22:07:02.985Z,32.27
2018-11-14T22:09:37.263Z,33.73
2018-11-14T22:12:11.176Z,33.87
2018-11-14T22:14:46.397Z,33.50
2018-11-14T22:17:20.435Z,33.70
2018-11-14T22:19:54.289Z,33.70
2018-11-14T22:22:28.217Z,35.97
2018-11-14T22:25:02.368Z,33.93
2018-11-14T22:27:36.110Z,34.47
2018-11-14T22:30:14.346Z,31.60
2018-11-14T22:32:48.769Z,31.87
2018-11-14T22:35:23.872Z,34.23
2018-11-14T22:37:58.196Z,32.07
2018-11-14T22:40:32.880Z,29.00
2018-11-14T22:43:08.027Z,32.07
2018-11-14T22:45:43.292Z,34.30
2018-11-14T22:48:18.225Z,32.63
2018-11-14T22:50:52.915Z,31.77
2018-11-14T22:53:27.246Z,30.53
2018-11-14T22:56:01.490Z,31.97
2018-11-14T22:58:35.761Z,31.63
2018-11-14T23:01:10.566Z,30.10
2018-11-14T23:03:44.780Z,31.47
2018-11-14T23:06:22.604Z,30.80
2018-11-14T23:08:57.565Z,31.10
2018-11-14T23:11:31.618Z,33.80
2018-11-14T23:14:05.543Z,31.97
2018-11-14T23:16:41.348Z,33.00
2018-11-14T23:19:15.230Z,30.40
2018-11-14T23:21:49.090Z,35.00
2018-11-14T23:24:23.404Z,32.03
2018-11-14T23:26:58.470Z,33.63
2018-11-14T23:29:34.032Z,33.57
2018-11-14T23:32:07.947Z,35.70
2018-11-14T23:34:45.498Z,35.57
2018-11-14T23:37:20.666Z,36.83
2018-11-14T23:39:54.756Z,39.70
2018-11-14T23:42:28.722Z,38.33
2018-11-14T23:45:03.220Z,39.47
2018-11-14T23:47:37.076Z,40.08
2018-11-14T23:50:16.210Z,43.03
2018-11-14T23:52:54.434Z,47.05
2018-11-14T23:55:29.367Z,46.40
2018-11-14T23:58:03.139Z,41.20
